Time;durP1;ratioP1;P1;durP2;ratioP2;P2;SDS_P1;SDS_P2;PMS_P1;PMS_P2;Temp;Humidity;BMP_temperature;BMP_pressure;BME280_temperature;BME280_humidity;BME280_pressure;Samples;Min_cycle;Max_cycle;Signal;HPM_P1;HPM_P2
2020/12/14 00:02:07;;;;;;;23.42;13.27;;;4.70;98.80;;;;;;10413898;28;20104;-68
2020/12/14 00:07:09;;;;;;;20.25;11.45;;;4.60;98.70;;;;;;10414105;28;20053;-68
2020/12/14 00:12:11;;;;;;;19.98;10.90;;;4.60;99.20;;;;;;10413459;28;20049;-69
2020/12/14 00:17:17;;;;;;;20.02;10.80;;;4.80;98.70;;;;;;10413973;28;20045;-69
2020/12/14 00:22:19;;;;;;;28.23;14.77;;;4.90;98.40;;;;;;10412506;28;20517;-69
2020/12/14 00:27:20;;;;;;;21.83;12.88;;;4.90;98.00;;;;;;10412969;28;20091;-68
2020/12/14 00:32:23;;;;;;;18.90;10.70;;;4.90;98.00;;;;;;10412157;28;20046;-68
2020/12/14 00:37:24;;;;;;;17.40;9.73;;;4.80;98.10;;;;;;10412838;28;20136;-69
2020/12/14 00:42:26;;;;;;;16.23;10.70;;;4.90;98.20;;;;;;10412431;28;20137;-68
2020/12/14 00:47:29;;;;;;;19.25;11.05;;;4.80;98.10;;;;;;10411098;28;20576;-68
2020/12/14 00:52:31;;;;;;;20.90;11.65;;;4.70;98.40;;;;;;10411698;28;20088;-69
2020/12/14 00:57:32;;;;;;;17.08;9.60;;;4.30;98.90;;;;;;10411840;28;20077;-68
2020/12/14 01:02:34;;;;;;;22.80;9.07;;;4.40;99.60;;;;;;10411288;28;20049;-68
2020/12/14 01:07:35;;;;;;;20.92;10.25;;;4.60;99.10;;;;;;10386956;28;20115;-68
2020/12/14 01:12:37;;;;;;;24.85;11.43;;;4.70;98.90;;;;;;10411295;28;20085;-68
2020/12/14 01:17:39;;;;;;;20.15;11.27;;;4.80;98.60;;;;;;10410593;28;20049;-69
2020/12/14 01:22:44;;;;;;;22.15;13.38;;;4.80;98.70;;;;;;10409796;28;20402;-69
2020/12/14 01:27:45;;;;;;;15.27;9.35;;;4.90;98.90;;;;;;10407636;28;20095;-69
2020/12/14 01:32:47;;;;;;;22.42;10.18;;;5.00;98.90;;;;;;10407668;28;20080;-69
2020/12/14 01:37:48;;;;;;;19.08;10.40;;;5.10;98.50;;;;;;10410527;28;20073;-68
2020/12/14 01:42:50;;;;;;;15.05;7.90;;;4.70;98.80;;;;;;10408829;28;20076;-69
2020/12/14 01:47:52;;;;;;;15.45;9.50;;;4.90;99.40;;;;;;10410248;28;20046;-68
2020/12/14 01:52:58;;;;;;;15.88;8.93;;;5.00;99.30;;;;;;10409263;28;20521;-68
2020/12/14 01:57:59;;;;;;;14.32;8.80;;;5.00;99.40;;;;;;10407874;28;20045;-68
2020/12/14 02:03:01;;;;;;;17.70;9.10;;;5.10;99.40;;;;;;10409471;28;20104;-69
2020/12/14 02:08:05;;;;;;;14.95;8.60;;;5.10;99.30;;;;;;10430665;28;20128;-69
2020/12/14 02:13:06;;;;;;;16.88;8.52;;;5.10;99.30;;;;;;10425518;28;20463;-69
2020/12/14 02:18:08;;;;;;;18.67;9.00;;;5.10;99.40;;;;;;10409190;28;20847;-68
2020/12/14 02:23:09;;;;;;;21.08;8.95;;;5.10;99.60;;;;;;10410202;28;20132;-68
2020/12/14 02:28:10;;;;;;;13.02;7.90;;;5.20;99.60;;;;;;10408959;28;20530;-68
2020/12/14 02:33:12;;;;;;;12.95;7.40;;;5.30;99.20;;;;;;10409861;28;20085;-68
2020/12/14 02:38:13;;;;;;;15.07;8.77;;;5.40;99.00;;;;;;10409454;28;20050;-69
2020/12/14 02:43:15;;;;;;;17.23;8.10;;;5.40;98.70;;;;;;10383944;28;20136;-68
2020/12/14 02:48:16;;;;;;;17.80;8.98;;;5.40;98.60;;;;;;10408019;28;20049;-68
2020/12/14 02:53:18;;;;;;;15.65;8.77;;;5.50;98.90;;;;;;10408748;28;20144;-68
2020/12/14 02:58:19;;;;;;;18.92;9.20;;;5.50;98.80;;;;;;10407319;28;20567;-68
2020/12/14 03:03:20;;;;;;;13.63;8.77;;;5.60;98.80;;;;;;10409100;28;20084;-68
2020/12/14 03:08:22;;;;;;;14.40;8.75;;;5.60;99.00;;;;;;10409620;28;20095;-69
2020/12/14 03:13:23;;;;;;;18.92;8.45;;;5.50;99.00;;;;;;10416906;28;20052;-68
2020/12/14 03:18:25;;;;;;;14.30;8.50;;;5.60;99.30;;;;;;10414384;28;20073;-68
2020/12/14 03:23:27;;;;;;;16.05;8.90;;;5.70;99.30;;;;;;10416142;28;20151;-68
2020/12/14 03:28:29;;;;;;;16.75;7.38;;;5.80;99.10;;;;;;10415556;28;20050;-68
2020/12/14 03:33:30;;;;;;;17.58;7.50;;;6.00;99.00;;;;;;10415595;28;20049;-68
2020/12/14 03:38:32;;;;;;;16.83;7.15;;;6.10;99.00;;;;;;10415209;28;20095;-68
2020/12/14 03:43:34;;;;;;;13.00;7.22;;;6.30;98.70;;;;;;10413918;28;20099;-69
2020/12/14 03:48:35;;;;;;;14.98;7.93;;;6.40;98.30;;;;;;10414757;28;20072;-69
2020/12/14 03:53:37;;;;;;;12.48;7.30;;;6.50;98.10;;;;;;10414886;28;20144;-68
2020/12/14 03:58:38;;;;;;;12.40;6.68;;;6.40;97.90;;;;;;10413980;28;20438;-68
2020/12/14 04:03:40;;;;;;;13.23;7.72;;;6.50;98.00;;;;;;10414351;28;20141;-68
2020/12/14 04:08:41;;;;;;;12.48;7.43;;;6.50;98.00;;;;;;10414379;28;20128;-69
2020/12/14 04:13:44;;;;;;;11.82;7.47;;;6.50;98.10;;;;;;10413839;28;20222;-68
2020/12/14 04:18:45;;;;;;;12.00;7.88;;;6.60;98.00;;;;;;10411359;28;20072;-68
2020/12/14 04:23:46;;;;;;;13.98;7.85;;;6.80;98.00;;;;;;10412638;28;20080;-69
2020/12/14 04:28:48;;;;;;;12.98;8.00;;;6.80;97.90;;;;;;10413381;28;20076;-68
2020/12/14 04:33:49;;;;;;;12.75;8.13;;;6.90;97.70;;;;;;10414541;28;20136;-69
2020/12/14 04:38:51;;;;;;;17.52;8.63;;;7.00;97.50;;;;;;10413460;28;20514;-68
2020/12/14 04:43:53;;;;;;;11.75;7.57;;;7.00;97.40;;;;;;10413386;28;20402;-69
2020/12/14 04:48:54;;;;;;;15.32;8.10;;;6.90;97.20;;;;;;10412775;28;20486;-68
2020/12/14 04:53:56;;;;;;;17.20;8.13;;;6.80;97.50;;;;;;10413265;28;20160;-69
2020/12/14 04:58:58;;;;;;;15.93;9.35;;;6.80;97.70;;;;;;10413503;28;20092;-68
2020/12/14 05:03:59;;;;;;;13.93;7.82;;;6.90;97.80;;;;;;10411908;28;20116;-68
2020/12/14 05:09:16;;;;;;;15.00;9.35;;;6.80;98.20;;;;;;10413062;28;20111;-68
2020/12/14 05:14:22;;;;;;;14.80;9.55;;;6.80;98.20;;;;;;10412538;28;20088;-68
2020/12/14 05:19:26;;;;;;;17.88;10.90;;;6.80;97.90;;;;;;10412621;28;20128;-68
2020/12/14 05:24:29;;;;;;;16.45;10.00;;;6.70;97.60;;;;;;10412535;28;20278;-68
2020/12/14 05:29:31;;;;;;;11.40;8.10;;;6.60;97.50;;;;;;10411918;28;20128;-68
2020/12/14 05:34:36;;;;;;;12.95;8.48;;;6.60;97.80;;;;;;10412040;28;20132;-69
2020/12/14 05:39:39;;;;;;;17.27;9.40;;;6.70;97.90;;;;;;10411941;28;20145;-69
2020/12/14 05:44:43;;;;;;;13.30;8.60;;;6.70;97.90;;;;;;10411898;28;20073;-69
2020/12/14 05:49:45;;;;;;;14.35;8.73;;;6.60;97.80;;;;;;10411542;28;20533;-69
2020/12/14 05:54:52;;;;;;;14.80;9.15;;;6.50;98.10;;;;;;10426993;28;20084;-68
2020/12/14 05:59:58;;;;;;;16.30;7.70;;;6.50;98.40;;;;;;10387116;28;20081;-68
2020/12/14 06:05:04;;;;;;;13.23;8.80;;;6.40;98.30;;;;;;10410978;28;20107;-68
2020/12/14 06:10:13;;;;;;;17.17;10.38;;;6.60;99.00;;;;;;10411205;28;20111;-68
2020/12/14 06:15:17;;;;;;;14.40;9.02;;;6.70;98.50;;;;;;10410301;28;20053;-68
2020/12/14 06:20:23;;;;;;;14.10;8.63;;;6.70;98.50;;;;;;10411058;28;20081;-68
2020/12/14 06:25:25;;;;;;;13.38;8.73;;;6.90;98.40;;;;;;10410908;28;20054;-68
2020/12/14 06:30:26;;;;;;;15.00;9.23;;;6.80;98.50;;;;;;10410594;28;20120;-68
2020/12/14 06:35:49;;;;;;;15.05;9.05;;;6.70;99.00;;;;;;10410485;28;20057;-69
2020/12/14 06:40:57;;;;;;;14.65;7.90;;;6.70;99.30;;;;;;10409390;28;20064;-69
2020/12/14 06:46:01;;;;;;;12.95;8.20;;;6.90;98.80;;;;;;10417395;28;20550;-69
2020/12/14 06:51:08;;;;;;;13.48;7.22;;;6.90;98.70;;;;;;10418031;28;20057;-69
2020/12/14 06:56:13;;;;;;;11.15;6.85;;;7.10;98.30;;;;;;10418196;28;20133;-68
2020/12/14 07:01:35;;;;;;;9.55;5.40;;;7.20;97.70;;;;;;10418004;28;20124;-68
2020/12/14 07:06:36;;;;;;;9.52;5.10;;;7.30;96.60;;;;;;10417755;28;20126;-68
2020/12/14 07:11:38;;;;;;;12.90;5.90;;;7.30;96.90;;;;;;10417903;28;20577;-68
2020/12/14 07:16:40;;;;;;;9.90;5.00;;;7.40;97.00;;;;;;10417262;28;20045;-68
2020/12/14 07:21:52;;;;;;;10.80;5.00;;;7.40;96.10;;;;;;10417653;28;20041;-69
2020/12/14 07:26:53;;;;;;;9.32;4.85;;;7.40;95.50;;;;;;10417020;28;20107;-69
2020/12/14 07:31:55;;;;;;;8.57;4.85;;;7.30;95.30;;;;;;10416670;28;20593;-69
2020/12/14 07:36:56;;;;;;;8.77;5.38;;;7.30;95.50;;;;;;10417077;28;20049;-69
2020/12/14 07:41:58;;;;;;;11.82;5.50;;;7.30;95.60;;;;;;10416680;28;20141;-69
2020/12/14 07:46:59;;;;;;;9.45;5.25;;;7.30;95.50;;;;;;10416323;28;20107;-69
2020/12/14 07:52:02;;;;;;;10.27;5.45;;;7.40;95.50;;;;;;10416186;28;20065;-69
2020/12/14 07:57:07;;;;;;;9.77;5.35;;;7.40;95.40;;;;;;10415064;28;20084;-69
2020/12/14 08:02:09;;;;;;;13.00;5.65;;;7.50;95.50;;;;;;10414528;28;20050;-69
2020/12/14 08:07:17;;;;;;;10.77;5.63;;;7.60;95.00;;;;;;10414715;28;20049;-69
2020/12/14 08:12:19;;;;;;;12.77;5.70;;;7.60;94.80;;;;;;10414920;28;20537;-69
2020/12/14 08:17:22;;;;;;;9.32;5.47;;;7.80;94.90;;;;;;10414791;28;20049;-69
2020/12/14 08:22:32;;;;;;;6.93;4.75;;;8.00;94.60;;;;;;10414179;28;20127;-69
2020/12/14 08:27:49;;;;;;;11.95;4.75;;;8.10;94.30;;;;;;10414766;28;20049;-69
2020/12/14 08:33:14;;;;;;;8.30;4.90;;;8.40;93.80;;;;;;10423793;28;20453;-69
2020/12/14 08:38:21;;;;;;;9.50;4.93;;;8.50;93.30;;;;;;10431280;28;20048;-69
2020/12/14 08:43:24;;;;;;;14.15;4.70;;;8.70;93.50;;;;;;10411879;28;20124;-69
2020/12/14 08:48:31;;;;;;;39.13;5.38;;;8.80;93.40;;;;;;10408736;28;20103;-69
2020/12/14 08:53:33;;;;;;;10.75;5.70;;;9.00;93.00;;;;;;10411649;28;20058;-69
2020/12/14 08:58:55;;;;;;;10.10;4.53;;;9.20;92.90;;;;;;10412067;28;20107;-69
2020/12/14 09:03:59;;;;;;;8.77;3.47;;;9.20;92.20;;;;;;10407498;28;20087;-69
2020/12/14 09:09:02;;;;;;;8.55;3.90;;;9.10;91.90;;;;;;10408240;28;20041;-69
2020/12/14 09:14:06;;;;;;;7.80;3.40;;;9.30;92.20;;;;;;10405542;28;20057;-69
2020/12/14 09:19:07;;;;;;;7.47;3.25;;;9.50;91.90;;;;;;10415715;28;20052;-69
2020/12/14 09:24:10;;;;;;;6.18;3.20;;;9.70;91.70;;;;;;10407423;28;20497;-69
2020/12/14 09:29:12;;;;;;;5.50;3.40;;;9.90;90.90;;;;;;10406561;28;20481;-73
2020/12/14 09:34:14;;;;;;;6.97;3.85;;;10.10;90.60;;;;;;10412206;28;20111;-74
2020/12/14 09:39:15;;;;;;;6.53;3.33;;;10.10;90.10;;;;;;10400973;28;20068;-73
2020/12/14 09:44:18;;;;;;;6.88;3.53;;;9.90;90.20;;;;;;10410594;28;20061;-73
2020/12/14 09:49:21;;;;;;;7.25;3.10;;;9.80;89.70;;;;;;10406994;28;20135;-73
2020/12/14 09:54:23;;;;;;;6.18;3.05;;;9.90;90.20;;;;;;10416784;28;20053;-74
2020/12/14 09:59:25;;;;;;;6.32;3.00;;;9.90;90.20;;;;;;10400316;28;20107;-74
2020/12/14 10:04:26;;;;;;;6.85;3.03;;;9.80;90.00;;;;;;10406964;28;20502;-73
2020/12/14 10:09:28;;;;;;;6.70;2.85;;;9.90;89.80;;;;;;10406436;28;20049;-74
2020/12/14 10:14:30;;;;;;;4.88;2.58;;;9.90;88.30;;;;;;10408681;28;20145;-74
2020/12/14 10:19:32;;;;;;;4.72;2.50;;;10.10;88.80;;;;;;10407089;28;20096;-74
2020/12/14 10:24:36;;;;;;;5.22;2.70;;;10.30;87.50;;;;;;10424099;28;20049;-73
2020/12/14 10:29:38;;;;;;;5.18;2.75;;;10.30;87.60;;;;;;10407669;28;20129;-74
2020/12/14 10:34:39;;;;;;;10.85;3.28;;;10.30;87.50;;;;;;10407693;28;20457;-73
2020/12/14 10:39:41;;;;;;;5.68;2.78;;;10.50;87.50;;;;;;10407103;28;20049;-73
2020/12/14 10:44:43;;;;;;;6.95;3.20;;;10.60;86.90;;;;;;10408841;28;20072;-73
2020/12/14 10:49:45;;;;;;;6.80;2.70;;;10.60;87.40;;;;;;10409419;28;20056;-73
2020/12/14 10:54:46;;;;;;;5.38;3.00;;;10.70;86.90;;;;;;10409189;28;20046;-73
2020/12/14 10:59:48;;;;;;;4.95;2.80;;;10.90;86.50;;;;;;10394126;28;20054;-74
2020/12/14 11:04:50;;;;;;;7.18;3.63;;;11.10;85.90;;;;;;10404569;28;20053;-73
2020/12/14 11:09:52;;;;;;;8.18;4.05;;;11.40;86.00;;;;;;10400351;28;20053;-73
2020/12/14 11:14:55;;;;;;;12.27;3.38;;;11.50;85.00;;;;;;10408549;28;20055;-73
2020/12/14 11:19:57;;;;;;;9.25;3.38;;;11.50;85.30;;;;;;10406645;28;20192;-73
2020/12/14 11:24:58;;;;;;;5.28;2.67;;;11.50;83.50;;;;;;10405017;28;20085;-73
2020/12/14 11:29:59;;;;;;;6.30;2.80;;;11.50;81.80;;;;;;10410124;28;20041;-73
2020/12/14 11:35:01;;;;;;;5.45;2.60;;;11.40;81.70;;;;;;10415698;28;20136;-74
2020/12/14 11:40:04;;;;;;;6.03;2.60;;;11.20;80.50;;;;;;10413684;28;20037;-73
2020/12/14 11:45:09;;;;;;;4.47;2.40;;;11.00;79.30;;;;;;10413824;28;20437;-74
2020/12/14 11:50:10;;;;;;;5.65;2.70;;;10.80;80.40;;;;;;10413869;28;20111;-73
2020/12/14 11:55:13;;;;;;;5.43;2.70;;;10.70;81.00;;;;;;10412963;28;20052;-73
2020/12/14 12:00:15;;;;;;;5.35;3.00;;;10.60;81.20;;;;;;10409001;28;20058;-73
2020/12/14 12:05:16;;;;;;;5.80;2.65;;;10.70;81.10;;;;;;10405156;28;20049;-73
2020/12/14 12:10:20;;;;;;;7.07;2.92;;;10.70;80.60;;;;;;10439769;28;20044;-74
2020/12/14 12:15:21;;;;;;;4.50;2.38;;;10.60;80.30;;;;;;10426023;28;20115;-73
2020/12/14 12:20:23;;;;;;;5.90;2.65;;;10.70;80.80;;;;;;10408906;28;20057;-73
2020/12/14 12:25:25;;;;;;;8.57;2.70;;;10.70;80.90;;;;;;10413847;28;20053;-73
2020/12/14 12:30:33;;;;;;;7.43;2.83;;;10.70;80.70;;;;;;10407337;28;20481;-73
2020/12/14 12:35:35;;;;;;;6.15;3.10;;;10.70;80.50;;;;;;10406258;28;20052;-74
2020/12/14 12:40:36;;;;;;;6.80;2.97;;;10.70;80.80;;;;;;10407230;28;20414;-74
2020/12/14 12:45:38;;;;;;;7.05;3.22;;;10.70;80.30;;;;;;10411922;28;20502;-74
2020/12/14 12:50:54;;;;;;;8.05;3.17;;;10.80;80.40;;;;;;10411452;28;20049;-74
2020/12/14 12:55:56;;;;;;;5.78;2.83;;;10.70;80.70;;;;;;10411921;28;20060;-74
2020/12/14 13:00:58;;;;;;;6.40;3.00;;;10.60;81.10;;;;;;10411409;28;20505;-73
2020/12/14 13:06:00;;;;;;;6.55;3.70;;;10.50;81.30;;;;;;10412176;28;20084;-73
2020/12/14 13:11:01;;;;;;;7.50;3.20;;;10.40;82.30;;;;;;10410895;28;20119;-73
2020/12/14 13:16:03;;;;;;;11.63;3.45;;;10.50;82.20;;;;;;10410175;28;20052;-73
2020/12/14 13:21:04;;;;;;;8.18;3.25;;;10.50;82.60;;;;;;10407026;28;20048;-73
2020/12/14 13:26:06;;;;;;;6.28;3.22;;;10.60;81.90;;;;;;10425789;28;20444;-73
2020/12/14 13:31:08;;;;;;;5.50;3.08;;;10.50;82.80;;;;;;10411023;28;20088;-73
2020/12/14 13:36:09;;;;;;;5.97;3.13;;;10.50;83.10;;;;;;10406994;28;20559;-73
2020/12/14 13:41:11;;;;;;;5.72;3.10;;;10.50;83.00;;;;;;10406653;28;20089;-73
2020/12/14 13:46:13;;;;;;;6.10;2.88;;;10.50;82.70;;;;;;10405828;28;20106;-73
2020/12/14 13:51:24;;;;;;;6.75;2.83;;;10.30;83.10;;;;;;10400042;28;20050;-74
2020/12/14 13:56:25;;;;;;;7.88;3.17;;;10.40;82.70;;;;;;10405793;28;20502;-73
2020/12/14 14:01:27;;;;;;;5.40;2.88;;;10.50;82.30;;;;;;10409256;28;20053;-74
2020/12/14 14:06:28;;;;;;;5.65;2.78;;;10.60;82.10;;;;;;10409809;28;20060;-72
2020/12/14 14:11:30;;;;;;;4.70;2.60;;;10.50;81.70;;;;;;10410347;28;20056;-73
2020/12/14 14:16:31;;;;;;;5.60;2.90;;;10.40;81.10;;;;;;10408846;28;20049;-73
2020/12/14 14:21:35;;;;;;;14.75;7.32;;;10.40;81.60;;;;;;10411062;28;20095;-73
2020/12/14 14:26:37;;;;;;;6.72;3.30;;;10.30;81.50;;;;;;10410933;28;20088;-73
2020/12/14 14:31:38;;;;;;;8.23;3.30;;;10.30;81.10;;;;;;10408912;28;20485;-72
2020/12/14 14:36:40;;;;;;;6.68;3.10;;;10.20;82.10;;;;;;10409952;28;20414;-74
2020/12/14 14:41:45;;;;;;;7.90;2.92;;;10.10;82.20;;;;;;10396399;28;20076;-73
2020/12/14 14:46:52;;;;;;;7.60;3.50;;;10.10;82.20;;;;;;10399555;28;20057;-74
2020/12/14 14:51:54;;;;;;;8.00;3.50;;;10.00;83.00;;;;;;10380375;28;20494;-73
2020/12/14 14:56:56;;;;;;;9.70;4.50;;;9.90;83.20;;;;;;10407245;28;20153;-74
2020/12/14 15:01:59;;;;;;;6.70;3.60;;;9.90;83.60;;;;;;10408748;28;20103;-73
2020/12/14 15:07:03;;;;;;;9.10;3.90;;;9.80;84.10;;;;;;10415035;28;20057;-73
2020/12/14 15:12:04;;;;;;;6.63;3.90;;;9.60;84.80;;;;;;10414356;28;20532;-74
2020/12/14 15:17:06;;;;;;;9.32;4.47;;;9.50;85.50;;;;;;10414583;28;20490;-73
2020/12/14 15:22:08;;;;;;;8.60;4.00;;;9.40;86.10;;;;;;10402406;28;20486;-74
2020/12/14 15:27:09;;;;;;;8.23;3.97;;;9.20;86.30;;;;;;10383380;28;20532;-72
2020/12/14 15:32:11;;;;;;;8.93;4.68;;;9.10;86.70;;;;;;10415715;28;20471;-73
2020/12/14 15:37:13;;;;;;;7.97;5.20;;;8.90;87.10;;;;;;10416060;28;20049;-73
2020/12/14 15:42:18;;;;;;;8.07;4.57;;;8.80;87.90;;;;;;10416306;28;20057;-73
2020/12/14 15:47:20;;;;;;;10.40;5.28;;;8.90;87.60;;;;;;10399487;28;20049;-73
2020/12/14 15:52:21;;;;;;;12.75;5.43;;;8.90;87.50;;;;;;10415170;28;20107;-73
2020/12/14 15:57:22;;;;;;;14.10;6.53;;;8.80;87.50;;;;;;10413747;28;20069;-73
2020/12/14 16:02:28;;;;;;;14.65;6.50;;;8.80;87.60;;;;;;10414493;28;20513;-74
2020/12/14 16:07:30;;;;;;;12.95;6.60;;;8.80;87.60;;;;;;10414199;28;20132;-73
2020/12/14 16:12:34;;;;;;;12.82;6.90;;;8.80;87.60;;;;;;10412298;28;20466;-73
2020/12/14 16:17:36;;;;;;;17.80;7.70;;;8.60;88.10;;;;;;10388618;28;20417;-71
2020/12/14 16:22:41;;;;;;;12.60;6.55;;;8.50;88.50;;;;;;10375420;28;20053;-70
2020/12/14 16:27:44;;;;;;;10.25;6.20;;;8.40;88.80;;;;;;10433703;23;20481;-71
2020/12/14 16:32:48;;;;;;;12.10;6.22;;;8.30;89.00;;;;;;10324555;28;20081;-71
2020/12/14 16:37:51;;;;;;;9.15;5.70;;;8.30;89.30;;;;;;10302950;28;20066;-71
2020/12/14 16:42:53;;;;;;;9.32;5.85;;;8.30;89.20;;;;;;10317939;28;20320;-71
2020/12/14 16:47:56;;;;;;;9.63;5.50;;;8.30;89.00;;;;;;10308653;28;20138;-71
2020/12/14 16:52:57;;;;;;;9.80;5.60;;;8.30;89.00;;;;;;10322335;28;20557;-71
2020/12/14 16:57:59;;;;;;;10.40;5.35;;;8.30;89.10;;;;;;10302045;28;20134;-71
2020/12/14 17:03:01;;;;;;;10.55;5.18;;;8.30;89.40;;;;;;10326216;28;20081;-71
2020/12/14 17:08:03;;;;;;;9.52;4.80;;;8.30;88.90;;;;;;10296506;28;20498;-71
2020/12/14 17:13:04;;;;;;;12.60;5.45;;;8.20;89.40;;;;;;10319406;28;20038;-71
2020/12/14 17:18:05;;;;;;;9.90;5.43;;;8.20;89.50;;;;;;10328045;28;20050;-71
2020/12/14 17:23:07;;;;;;;11.18;5.78;;;8.10;89.80;;;;;;10301926;28;20154;-71
2020/12/14 17:28:09;;;;;;;8.95;5.65;;;7.90;90.00;;;;;;10292235;28;20062;-71
2020/12/14 17:33:11;;;;;;;11.70;6.22;;;7.90;90.10;;;;;;10418138;23;20055;-71
2020/12/14 17:38:13;;;;;;;12.80;6.07;;;7.90;90.30;;;;;;10323105;28;20453;-71
2020/12/14 17:43:14;;;;;;;12.07;6.00;;;7.90;90.30;;;;;;10304901;28;20051;-71
2020/12/14 17:48:16;;;;;;;10.30;5.65;;;7.90;90.10;;;;;;10318954;28;20465;-71
2020/12/14 17:53:17;;;;;;;12.00;5.43;;;7.90;90.00;;;;;;10313214;28;20491;-71
2020/12/14 17:58:19;;;;;;;11.38;5.18;;;8.00;89.90;;;;;;10321974;28;20042;-70
2020/12/14 18:03:23;;;;;;;14.02;8.13;;;8.10;90.10;;;;;;10300398;28;20509;-71
2020/12/14 18:08:25;;;;;;;19.38;7.65;;;8.10;90.10;;;;;;10292279;28;20070;-71
2020/12/14 18:13:27;;;;;;;12.95;7.07;;;8.10;90.00;;;;;;10312326;28;20042;-71
2020/12/14 18:18:28;;;;;;;13.05;7.03;;;8.10;90.00;;;;;;10310329;28;20129;-70
2020/12/14 18:23:30;;;;;;;9.50;6.05;;;8.10;90.00;;;;;;10304168;28;20166;-71
2020/12/14 18:28:31;;;;;;;9.77;6.13;;;8.10;90.00;;;;;;10325625;28;20392;-71
2020/12/14 21:25:27;;;;;;;20.70;12.88;;;7.30;93.10;;;;;;10290998;28;20055;-71
2020/12/14 21:30:29;;;;;;;16.88;10.45;;;7.10;93.10;;;;;;10303827;28;20506;-71
2020/12/14 21:35:31;;;;;;;13.85;8.80;;;7.20;93.50;;;;;;10313824;28;20114;-71
2020/12/14 21:40:33;;;;;;;15.02;9.52;;;7.10;93.30;;;;;;10302220;28;20557;-71
2020/12/14 21:45:35;;;;;;;14.18;8.30;;;7.20;93.30;;;;;;10326701;28;20055;-70
2020/12/14 21:50:37;;;;;;;14.90;8.68;;;7.30;93.40;;;;;;10316299;28;20054;-71
2020/12/14 21:55:38;;;;;;;13.57;8.13;;;7.30;93.20;;;;;;10319199;28;20098;-71
2020/12/14 22:00:41;;;;;;;15.27;7.82;;;7.30;93.30;;;;;;10325450;28;20054;-70
2020/12/14 22:05:43;;;;;;;12.40;7.38;;;7.20;93.30;;;;;;10319150;28;20069;-71
2020/12/14 22:10:45;;;;;;;13.95;7.32;;;7.10;93.40;;;;;;10317097;28;20580;-71
2020/12/14 22:15:46;;;;;;;14.45;7.43;;;7.00;93.60;;;;;;10326270;28;20165;-70
2020/12/14 22:20:48;;;;;;;12.73;6.85;;;7.10;93.60;;;;;;10299719;28;20078;-71
2020/12/14 22:25:49;;;;;;;13.52;6.60;;;7.10;93.70;;;;;;10323877;28;20081;-71
2020/12/14 22:30:51;;;;;;;9.80;6.65;;;7.10;93.70;;;;;;10298728;28;20059;-71
2020/12/14 22:35:52;;;;;;;14.60;7.07;;;7.00;93.90;;;;;;10315994;28;20082;-70
2020/12/14 22:40:53;;;;;;;10.27;6.35;;;7.00;94.00;;;;;;10316743;28;20096;-71
2020/12/14 22:45:55;;;;;;;10.07;5.95;;;7.10;94.00;;;;;;10300492;28;20078;-71
2020/12/14 22:50:57;;;;;;;9.50;6.13;;;7.20;93.90;;;;;;10326234;28;20038;-71
2020/12/14 22:55:59;;;;;;;10.13;5.93;;;7.20;94.00;;;;;;10326223;28;20153;-71
2020/12/14 23:01:01;;;;;;;9.45;5.70;;;7.30;94.10;;;;;;10325935;28;20406;-70
2020/12/14 23:06:03;;;;;;;11.88;7.35;;;7.20;94.10;;;;;;10328313;28;20054;-71
2020/12/14 23:11:04;;;;;;;11.25;6.30;;;7.10;94.30;;;;;;10326803;28;20057;-71
2020/12/14 23:16:06;;;;;;;10.35;6.10;;;7.10;94.30;;;;;;10325361;28;20047;-71
2020/12/14 23:21:08;;;;;;;11.20;6.60;;;7.10;94.30;;;;;;10320740;28;20038;-71
2020/12/14 23:26:09;;;;;;;14.85;7.70;;;6.90;94.60;;;;;;10329743;28;20050;-71
2020/12/14 23:31:11;;;;;;;9.95;6.53;;;6.80;95.00;;;;;;10334600;28;20117;-71
2020/12/14 23:36:19;;;;;;;9.88;6.40;;;6.80;94.90;;;;;;10325844;28;20137;-71
2020/12/14 23:41:27;;;;;;;14.68;7.72;;;6.80;95.30;;;;;;10324591;28;20669;-71
2020/12/14 23:46:28;;;;;;;12.88;8.30;;;6.90;95.20;;;;;;10323454;28;20057;-71
2020/12/14 23:51:30;;;;;;;14.10;8.32;;;6.90;94.90;;;;;;10305037;28;20080;-70
2020/12/14 23:56:32;;;;;;;11.50;6.45;;;7.00;94.70;;;;;;10311858;28;20125;-71
